sensor_id;sensor_type;location;lat;lon;timestamp;temperature;humidity
21570;DHT22;57598;50.888;4.746;2023-04-08T00:01:53;9.30;99.90
21570;DHT22;57598;50.888;4.746;2023-04-08T00:04:20;9.30;99.90
21570;DHT22;57598;50.888;4.746;2023-04-08T00:06:47;9.30;99.90
21570;DHT22;57598;50.888;4.746;2023-04-08T00:09:14;9.30;99.90
21570;DHT22;57598;50.888;4.746;2023-04-08T00:11:41;9.30;99.90
21570;DHT22;57598;50.888;4.746;2023-04-08T00:14:09;9.30;99.90
21570;DHT22;57598;50.888;4.746;2023-04-08T00:16:36;9.30;99.90
21570;DHT22;57598;50.888;4.746;2023-04-08T00:19:03;9.20;99.90
21570;DHT22;57598;50.888;4.746;2023-04-08T00:21:31;9.20;99.90
21570;DHT22;57598;50.888;4.746;2023-04-08T00:23:58;9.20;99.90
21570;DHT22;57598;50.888;4.746;2023-04-08T00:26:25;9.20;99.90
21570;DHT22;57598;50.888;4.746;2023-04-08T00:28:52;9.20;99.90
21570;DHT22;57598;50.888;4.746;2023-04-08T00:31:20;9.20;99.90
21570;DHT22;57598;50.888;4.746;2023-04-08T00:33:47;9.20;99.90
21570;DHT22;57598;50.888;4.746;2023-04-08T00:36:14;9.20;99.90
21570;DHT22;57598;50.888;4.746;2023-04-08T00:38:41;9.20;99.90
21570;DHT22;57598;50.888;4.746;2023-04-08T00:41:08;9.20;99.90
21570;DHT22;57598;50.888;4.746;2023-04-08T00:43:35;9.20;99.90
21570;DHT22;57598;50.888;4.746;2023-04-08T00:46:02;9.30;99.90
21570;DHT22;57598;50.888;4.746;2023-04-08T00:48:31;9.20;99.90
21570;DHT22;57598;50.888;4.746;2023-04-08T00:50:58;9.20;99.90
21570;DHT22;57598;50.888;4.746;2023-04-08T00:53:26;9.30;99.90
21570;DHT22;57598;50.888;4.746;2023-04-08T00:55:53;9.30;99.90
21570;DHT22;57598;50.888;4.746;2023-04-08T00:58:20;9.20;99.90
21570;DHT22;57598;50.888;4.746;2023-04-08T01:00:51;9.30;99.90
21570;DHT22;57598;50.888;4.746;2023-04-08T01:03:26;9.30;99.90
21570;DHT22;57598;50.888;4.746;2023-04-08T01:06:06;9.30;99.90
21570;DHT22;57598;50.888;4.746;2023-04-08T01:08:37;9.30;99.90
21570;DHT22;57598;50.888;4.746;2023-04-08T01:11:09;9.40;99.90
21570;DHT22;57598;50.888;4.746;2023-04-08T01:13:39;9.40;99.90
21570;DHT22;57598;50.888;4.746;2023-04-08T01:16:08;9.40;99.90
21570;DHT22;57598;50.888;4.746;2023-04-08T01:18:37;9.40;99.90
21570;DHT22;57598;50.888;4.746;2023-04-08T01:21:06;9.40;99.90
21570;DHT22;57598;50.888;4.746;2023-04-08T01:23:39;9.40;99.90
21570;DHT22;57598;50.888;4.746;2023-04-08T01:26:12;9.40;99.90
21570;DHT22;57598;50.888;4.746;2023-04-08T01:28:48;9.30;99.90
21570;DHT22;57598;50.888;4.746;2023-04-08T01:31:17;9.40;99.90
21570;DHT22;57598;50.888;4.746;2023-04-08T01:33:44;9.30;99.90
21570;DHT22;57598;50.888;4.746;2023-04-08T01:36:12;9.30;99.90
21570;DHT22;57598;50.888;4.746;2023-04-08T01:38:40;9.30;99.90
21570;DHT22;57598;50.888;4.746;2023-04-08T01:41:10;9.30;99.90
21570;DHT22;57598;50.888;4.746;2023-04-08T01:43:38;9.30;99.90
21570;DHT22;57598;50.888;4.746;2023-04-08T01:46:07;9.30;99.90
21570;DHT22;57598;50.888;4.746;2023-04-08T01:48:37;9.30;99.90
21570;DHT22;57598;50.888;4.746;2023-04-08T01:51:04;9.30;99.90
21570;DHT22;57598;50.888;4.746;2023-04-08T01:53:32;9.30;99.90
21570;DHT22;57598;50.888;4.746;2023-04-08T01:56:05;9.30;99.90
21570;DHT22;57598;50.888;4.746;2023-04-08T01:58:37;9.30;99.90
21570;DHT22;57598;50.888;4.746;2023-04-08T02:01:09;9.30;99.90
21570;DHT22;57598;50.888;4.746;2023-04-08T02:03:37;9.30;99.90
21570;DHT22;57598;50.888;4.746;2023-04-08T02:06:06;9.20;99.90
21570;DHT22;57598;50.888;4.746;2023-04-08T02:08:33;9.20;99.90
21570;DHT22;57598;50.888;4.746;2023-04-08T02:11:01;9.20;99.90
21570;DHT22;57598;50.888;4.746;2023-04-08T02:13:28;9.30;99.90
21570;DHT22;57598;50.888;4.746;2023-04-08T02:16:03;9.30;99.90
21570;DHT22;57598;50.888;4.746;2023-04-08T02:18:33;9.30;99.90
21570;DHT22;57598;50.888;4.746;2023-04-08T02:21:06;9.30;99.90
21570;DHT22;57598;50.888;4.746;2023-04-08T02:23:36;9.30;99.90
21570;DHT22;57598;50.888;4.746;2023-04-08T02:26:07;9.30;99.90
21570;DHT22;57598;50.888;4.746;2023-04-08T02:28:39;9.30;99.90
21570;DHT22;57598;50.888;4.746;2023-04-08T02:31:10;9.30;99.90
21570;DHT22;57598;50.888;4.746;2023-04-08T02:33:38;9.30;99.90
21570;DHT22;57598;50.888;4.746;2023-04-08T02:36:06;9.30;99.90
21570;DHT22;57598;50.888;4.746;2023-04-08T02:38:33;9.30;99.90
21570;DHT22;57598;50.888;4.746;2023-04-08T02:41:00;9.30;99.90
21570;DHT22;57598;50.888;4.746;2023-04-08T02:43:27;9.20;99.90
21570;DHT22;57598;50.888;4.746;2023-04-08T02:45:57;9.20;99.90
21570;DHT22;57598;50.888;4.746;2023-04-08T02:48:26;9.10;99.90
21570;DHT22;57598;50.888;4.746;2023-04-08T02:50:53;9.20;99.90
21570;DHT22;57598;50.888;4.746;2023-04-08T02:53:22;9.20;99.90
21570;DHT22;57598;50.888;4.746;2023-04-08T02:55:49;9.20;99.90
21570;DHT22;57598;50.888;4.746;2023-04-08T02:58:16;9.20;99.90
21570;DHT22;57598;50.888;4.746;2023-04-08T03:00:43;9.20;99.90
21570;DHT22;57598;50.888;4.746;2023-04-08T03:03:10;9.20;99.90
21570;DHT22;57598;50.888;4.746;2023-04-08T03:05:38;9.20;99.90
21570;DHT22;57598;50.888;4.746;2023-04-08T03:08:05;9.10;99.90
21570;DHT22;57598;50.888;4.746;2023-04-08T03:10:32;9.10;99.90
21570;DHT22;57598;50.888;4.746;2023-04-08T03:12:59;9.10;99.90
21570;DHT22;57598;50.888;4.746;2023-04-08T03:15:26;9.10;99.90
21570;DHT22;57598;50.888;4.746;2023-04-08T03:17:53;9.20;99.90
21570;DHT22;57598;50.888;4.746;2023-04-08T03:20:20;9.20;99.90
21570;DHT22;57598;50.888;4.746;2023-04-08T03:22:48;9.20;99.90
21570;DHT22;57598;50.888;4.746;2023-04-08T03:25:16;9.20;99.90
21570;DHT22;57598;50.888;4.746;2023-04-08T03:27:43;9.20;99.90
21570;DHT22;57598;50.888;4.746;2023-04-08T03:30:10;9.20;99.90
21570;DHT22;57598;50.888;4.746;2023-04-08T03:32:37;9.20;99.90
21570;DHT22;57598;50.888;4.746;2023-04-08T03:35:05;9.20;99.90
21570;DHT22;57598;50.888;4.746;2023-04-08T03:37:32;9.10;99.90
21570;DHT22;57598;50.888;4.746;2023-04-08T03:40:00;9.10;99.90
21570;DHT22;57598;50.888;4.746;2023-04-08T03:42:27;9.10;99.90
21570;DHT22;57598;50.888;4.746;2023-04-08T03:44:54;9.10;99.90
21570;DHT22;57598;50.888;4.746;2023-04-08T03:47:21;9.10;99.90
21570;DHT22;57598;50.888;4.746;2023-04-08T03:49:48;9.10;99.90
21570;DHT22;57598;50.888;4.746;2023-04-08T03:52:15;9.00;99.90
21570;DHT22;57598;50.888;4.746;2023-04-08T03:54:42;9.00;99.90
21570;DHT22;57598;50.888;4.746;2023-04-08T03:57:11;9.00;99.90
21570;DHT22;57598;50.888;4.746;2023-04-08T03:59:38;9.00;99.90
21570;DHT22;57598;50.888;4.746;2023-04-08T04:02:05;9.00;99.90
21570;DHT22;57598;50.888;4.746;2023-04-08T04:04:33;8.90;99.90
21570;DHT22;57598;50.888;4.746;2023-04-08T04:07:01;8.90;99.90
21570;DHT22;57598;50.888;4.746;2023-04-08T04:09:28;8.90;99.90
21570;DHT22;57598;50.888;4.746;2023-04-08T04:11:55;8.90;99.90
21570;DHT22;57598;50.888;4.746;2023-04-08T04:14:23;8.90;99.90
21570;DHT22;57598;50.888;4.746;2023-04-08T04:16:50;9.00;99.90
21570;DHT22;57598;50.888;4.746;2023-04-08T04:19:17;9.00;99.90
21570;DHT22;57598;50.888;4.746;2023-04-08T04:21:44;9.00;99.90
21570;DHT22;57598;50.888;4.746;2023-04-08T04:24:11;9.00;99.90
21570;DHT22;57598;50.888;4.746;2023-04-08T04:26:39;9.00;99.90
21570;DHT22;57598;50.888;4.746;2023-04-08T04:29:06;9.00;99.90
21570;DHT22;57598;50.888;4.746;2023-04-08T04:31:34;9.00;99.90
21570;DHT22;57598;50.888;4.746;2023-04-08T04:34:01;9.00;99.90
21570;DHT22;57598;50.888;4.746;2023-04-08T04:36:28;9.00;99.90
21570;DHT22;57598;50.888;4.746;2023-04-08T04:38:55;9.10;99.90
21570;DHT22;57598;50.888;4.746;2023-04-08T04:41:22;9.00;99.90
21570;DHT22;57598;50.888;4.746;2023-04-08T04:43:49;9.10;99.90
21570;DHT22;57598;50.888;4.746;2023-04-08T04:46:16;9.00;99.90
21570;DHT22;57598;50.888;4.746;2023-04-08T04:48:45;9.00;99.90
21570;DHT22;57598;50.888;4.746;2023-04-08T04:51:12;8.90;99.90
21570;DHT22;57598;50.888;4.746;2023-04-08T04:53:39;8.90;99.90
21570;DHT22;57598;50.888;4.746;2023-04-08T04:56:06;8.90;99.90
21570;DHT22;57598;50.888;4.746;2023-04-08T04:58:33;8.90;99.90
21570;DHT22;57598;50.888;4.746;2023-04-08T05:01:00;9.00;99.90
21570;DHT22;57598;50.888;4.746;2023-04-08T05:03:27;9.00;99.90
21570;DHT22;57598;50.888;4.746;2023-04-08T05:05:55;9.00;99.90
21570;DHT22;57598;50.888;4.746;2023-04-08T05:08:22;9.00;99.90
21570;DHT22;57598;50.888;4.746;2023-04-08T05:10:49;9.00;99.90
21570;DHT22;57598;50.888;4.746;2023-04-08T05:13:16;9.10;99.90
21570;DHT22;57598;50.888;4.746;2023-04-08T05:15:43;9.10;99.90
21570;DHT22;57598;50.888;4.746;2023-04-08T05:18:11;9.10;99.90
21570;DHT22;57598;50.888;4.746;2023-04-08T05:20:38;9.00;99.90
21570;DHT22;57598;50.888;4.746;2023-04-08T05:23:06;9.00;99.90
21570;DHT22;57598;50.888;4.746;2023-04-08T05:25:33;9.00;99.90
21570;DHT22;57598;50.888;4.746;2023-04-08T05:28:00;9.10;99.90
21570;DHT22;57598;50.888;4.746;2023-04-08T05:30:27;9.10;99.90
21570;DHT22;57598;50.888;4.746;2023-04-08T05:32:54;9.00;99.90
21570;DHT22;57598;50.888;4.746;2023-04-08T05:35:22;8.90;99.90
21570;DHT22;57598;50.888;4.746;2023-04-08T05:37:49;9.00;99.90
21570;DHT22;57598;50.888;4.746;2023-04-08T05:40:17;9.10;99.90
21570;DHT22;57598;50.888;4.746;2023-04-08T05:42:44;9.10;99.90
21570;DHT22;57598;50.888;4.746;2023-04-08T05:45:11;9.20;99.90
21570;DHT22;57598;50.888;4.746;2023-04-08T05:47:38;9.20;99.90
21570;DHT22;57598;50.888;4.746;2023-04-08T05:50:06;9.20;99.90
21570;DHT22;57598;50.888;4.746;2023-04-08T05:52:33;9.20;99.90
21570;DHT22;57598;50.888;4.746;2023-04-08T05:55:01;9.20;99.90
21570;DHT22;57598;50.888;4.746;2023-04-08T05:57:29;9.20;99.90
21570;DHT22;57598;50.888;4.746;2023-04-08T05:59:56;9.30;99.90
21570;DHT22;57598;50.888;4.746;2023-04-08T06:02:23;9.30;99.90
21570;DHT22;57598;50.888;4.746;2023-04-08T06:04:50;9.20;99.90
21570;DHT22;57598;50.888;4.746;2023-04-08T06:07:17;9.20;99.90
21570;DHT22;57598;50.888;4.746;2023-04-08T06:09:44;9.20;99.90
21570;DHT22;57598;50.888;4.746;2023-04-08T06:12:11;9.20;99.90
21570;DHT22;57598;50.888;4.746;2023-04-08T06:14:39;9.30;99.90
21570;DHT22;57598;50.888;4.746;2023-04-08T06:17:06;9.30;99.90
21570;DHT22;57598;50.888;4.746;2023-04-08T06:19:33;9.40;99.90
21570;DHT22;57598;50.888;4.746;2023-04-08T06:22:01;9.50;99.90
21570;DHT22;57598;50.888;4.746;2023-04-08T06:24:28;9.60;99.90
21570;DHT22;57598;50.888;4.746;2023-04-08T06:26:55;9.60;99.90
21570;DHT22;57598;50.888;4.746;2023-04-08T06:29:22;9.70;99.90
21570;DHT22;57598;50.888;4.746;2023-04-08T06:31:50;9.80;99.90
21570;DHT22;57598;50.888;4.746;2023-04-08T06:34:17;9.80;99.90
21570;DHT22;57598;50.888;4.746;2023-04-08T06:36:44;9.80;99.90
21570;DHT22;57598;50.888;4.746;2023-04-08T06:39:11;9.80;99.90
21570;DHT22;57598;50.888;4.746;2023-04-08T06:41:39;9.80;99.90
21570;DHT22;57598;50.888;4.746;2023-04-08T06:44:06;9.90;99.90
21570;DHT22;57598;50.888;4.746;2023-04-08T06:46:33;9.90;99.90
21570;DHT22;57598;50.888;4.746;2023-04-08T06:49:02;9.90;99.90
21570;DHT22;57598;50.888;4.746;2023-04-08T06:51:31;10.00;99.90
21570;DHT22;57598;50.888;4.746;2023-04-08T06:53:58;10.00;99.90
21570;DHT22;57598;50.888;4.746;2023-04-08T06:56:25;10.10;99.90
21570;DHT22;57598;50.888;4.746;2023-04-08T06:58:52;10.10;99.90
21570;DHT22;57598;50.888;4.746;2023-04-08T07:01:19;10.20;99.90
21570;DHT22;57598;50.888;4.746;2023-04-08T07:03:46;10.30;99.90
21570;DHT22;57598;50.888;4.746;2023-04-08T07:06:14;10.40;99.90
21570;DHT22;57598;50.888;4.746;2023-04-08T07:08:41;10.40;99.90
21570;DHT22;57598;50.888;4.746;2023-04-08T07:11:08;10.50;99.90
21570;DHT22;57598;50.888;4.746;2023-04-08T07:13:35;10.60;99.90
21570;DHT22;57598;50.888;4.746;2023-04-08T07:16:03;10.80;99.90
21570;DHT22;57598;50.888;4.746;2023-04-08T07:18:30;10.80;99.90
21570;DHT22;57598;50.888;4.746;2023-04-08T07:20:57;10.90;99.90
21570;DHT22;57598;50.888;4.746;2023-04-08T07:23:26;11.00;99.90
21570;DHT22;57598;50.888;4.746;2023-04-08T07:25:53;11.20;99.90
21570;DHT22;57598;50.888;4.746;2023-04-08T07:28:20;11.40;99.90
21570;DHT22;57598;50.888;4.746;2023-04-08T07:30:47;11.40;99.90
21570;DHT22;57598;50.888;4.746;2023-04-08T07:33:14;11.40;99.90
21570;DHT22;57598;50.888;4.746;2023-04-08T07:35:41;11.40;99.90
21570;DHT22;57598;50.888;4.746;2023-04-08T07:38:08;11.50;99.90
21570;DHT22;57598;50.888;4.746;2023-04-08T07:40:38;11.60;99.90
21570;DHT22;57598;50.888;4.746;2023-04-08T07:43:05;11.80;99.90
21570;DHT22;57598;50.888;4.746;2023-04-08T07:45:33;12.30;99.90
21570;DHT22;57598;50.888;4.746;2023-04-08T07:48:01;12.20;99.90
21570;DHT22;57598;50.888;4.746;2023-04-08T07:50:35;12.00;99.90
21570;DHT22;57598;50.888;4.746;2023-04-08T07:53:02;12.10;99.90
21570;DHT22;57598;50.888;4.746;2023-04-08T07:55:32;11.80;99.90
21570;DHT22;57598;50.888;4.746;2023-04-08T07:58:01;11.80;99.90
21570;DHT22;57598;50.888;4.746;2023-04-08T08:00:28;12.00;99.90
21570;DHT22;57598;50.888;4.746;2023-04-08T08:02:56;12.20;99.90
21570;DHT22;57598;50.888;4.746;2023-04-08T08:05:23;12.40;99.90
21570;DHT22;57598;50.888;4.746;2023-04-08T08:07:50;12.40;99.90
21570;DHT22;57598;50.888;4.746;2023-04-08T08:10:17;12.50;99.90
21570;DHT22;57598;50.888;4.746;2023-04-08T08:12:44;12.50;99.90
21570;DHT22;57598;50.888;4.746;2023-04-08T08:15:12;12.40;99.90
21570;DHT22;57598;50.888;4.746;2023-04-08T08:17:39;12.40;99.90
21570;DHT22;57598;50.888;4.746;2023-04-08T08:20:07;12.40;99.90
21570;DHT22;57598;50.888;4.746;2023-04-08T08:22:35;12.50;99.90
21570;DHT22;57598;50.888;4.746;2023-04-08T08:25:04;12.60;99.90
21570;DHT22;57598;50.888;4.746;2023-04-08T08:27:31;12.60;99.90
21570;DHT22;57598;50.888;4.746;2023-04-08T08:29:59;12.70;99.90
21570;DHT22;57598;50.888;4.746;2023-04-08T08:32:27;12.80;99.90
21570;DHT22;57598;50.888;4.746;2023-04-08T08:34:54;12.70;99.90
21570;DHT22;57598;50.888;4.746;2023-04-08T08:37:21;12.80;99.90
21570;DHT22;57598;50.888;4.746;2023-04-08T08:39:48;12.60;99.90
21570;DHT22;57598;50.888;4.746;2023-04-08T08:42:19;12.80;99.90
21570;DHT22;57598;50.888;4.746;2023-04-08T08:44:47;13.00;99.90
21570;DHT22;57598;50.888;4.746;2023-04-08T08:47:14;13.10;99.90
21570;DHT22;57598;50.888;4.746;2023-04-08T08:49:43;12.90;99.90
21570;DHT22;57598;50.888;4.746;2023-04-08T08:52:11;13.10;99.90
21570;DHT22;57598;50.888;4.746;2023-04-08T08:54:42;13.10;99.90
21570;DHT22;57598;50.888;4.746;2023-04-08T08:57:16;13.10;99.90
21570;DHT22;57598;50.888;4.746;2023-04-08T08:59:45;12.90;99.90
21570;DHT22;57598;50.888;4.746;2023-04-08T09:02:23;12.70;99.90
21570;DHT22;57598;50.888;4.746;2023-04-08T09:04:57;12.60;99.90
21570;DHT22;57598;50.888;4.746;2023-04-08T09:07:25;12.50;99.90
21570;DHT22;57598;50.888;4.746;2023-04-08T09:09:53;12.60;99.90
21570;DHT22;57598;50.888;4.746;2023-04-08T09:12:20;13.00;99.90
21570;DHT22;57598;50.888;4.746;2023-04-08T09:14:48;13.50;99.90
21570;DHT22;57598;50.888;4.746;2023-04-08T09:17:15;14.40;99.90
21570;DHT22;57598;50.888;4.746;2023-04-08T09:20:04;15.10;99.90
21570;DHT22;57598;50.888;4.746;2023-04-08T09:22:34;15.60;99.90
21570;DHT22;57598;50.888;4.746;2023-04-08T09:25:21;16.70;99.90
21570;DHT22;57598;50.888;4.746;2023-04-08T09:27:49;16.40;99.90
21570;DHT22;57598;50.888;4.746;2023-04-08T09:30:16;16.10;99.90
21570;DHT22;57598;50.888;4.746;2023-04-08T09:32:47;15.70;99.90
21570;DHT22;57598;50.888;4.746;2023-04-08T09:35:16;15.50;99.90
21570;DHT22;57598;50.888;4.746;2023-04-08T09:37:43;15.90;99.90
21570;DHT22;57598;50.888;4.746;2023-04-08T09:40:11;16.50;99.90
21570;DHT22;57598;50.888;4.746;2023-04-08T09:42:43;16.80;99.90
21570;DHT22;57598;50.888;4.746;2023-04-08T09:45:11;16.60;99.90
21570;DHT22;57598;50.888;4.746;2023-04-08T09:47:43;16.80;99.90
21570;DHT22;57598;50.888;4.746;2023-04-08T09:50:18;16.90;99.90
21570;DHT22;57598;50.888;4.746;2023-04-08T09:52:47;16.00;99.90
21570;DHT22;57598;50.888;4.746;2023-04-08T09:55:21;15.00;99.90
21570;DHT22;57598;50.888;4.746;2023-04-08T09:57:51;15.00;99.90
21570;DHT22;57598;50.888;4.746;2023-04-08T10:00:26;15.10;99.90
21570;DHT22;57598;50.888;4.746;2023-04-08T10:02:57;15.40;99.90
21570;DHT22;57598;50.888;4.746;2023-04-08T10:05:29;15.40;99.90
21570;DHT22;57598;50.888;4.746;2023-04-08T10:07:56;14.90;99.90
21570;DHT22;57598;50.888;4.746;2023-04-08T10:10:24;14.70;99.90
21570;DHT22;57598;50.888;4.746;2023-04-08T10:12:52;14.30;99.90
21570;DHT22;57598;50.888;4.746;2023-04-08T10:15:23;14.20;99.90
21570;DHT22;57598;50.888;4.746;2023-04-08T10:17:51;14.00;99.90
21570;DHT22;57598;50.888;4.746;2023-04-08T10:20:42;14.20;99.90
21570;DHT22;57598;50.888;4.746;2023-04-08T10:23:11;14.50;99.90
21570;DHT22;57598;50.888;4.746;2023-04-08T10:25:39;14.80;99.90
21570;DHT22;57598;50.888;4.746;2023-04-08T10:28:25;14.90;99.90
21570;DHT22;57598;50.888;4.746;2023-04-08T10:30:54;14.90;99.90
21570;DHT22;57598;50.888;4.746;2023-04-08T10:33:23;15.00;99.90
21570;DHT22;57598;50.888;4.746;2023-04-08T10:35:56;15.10;99.90
21570;DHT22;57598;50.888;4.746;2023-04-08T10:38:25;15.30;99.90
21570;DHT22;57598;50.888;4.746;2023-04-08T10:40:53;15.50;99.90
21570;DHT22;57598;50.888;4.746;2023-04-08T10:43:20;15.70;99.90
21570;DHT22;57598;50.888;4.746;2023-04-08T10:45:48;16.20;99.90
21570;DHT22;57598;50.888;4.746;2023-04-08T10:48:20;16.60;99.90
21570;DHT22;57598;50.888;4.746;2023-04-08T10:50:54;17.40;99.90
21570;DHT22;57598;50.888;4.746;2023-04-08T10:53:28;18.60;99.90
21570;DHT22;57598;50.888;4.746;2023-04-08T10:56:03;19.20;99.90
21570;DHT22;57598;50.888;4.746;2023-04-08T10:58:31;18.90;99.90
21570;DHT22;57598;50.888;4.746;2023-04-08T11:01:03;19.40;99.90
21570;DHT22;57598;50.888;4.746;2023-04-08T11:03:32;19.60;99.90
21570;DHT22;57598;50.888;4.746;2023-04-08T11:06:01;18.50;99.90
21570;DHT22;57598;50.888;4.746;2023-04-08T11:08:28;17.90;99.90
21570;DHT22;57598;50.888;4.746;2023-04-08T11:10:55;17.40;99.90
21570;DHT22;57598;50.888;4.746;2023-04-08T11:13:23;17.30;99.90
21570;DHT22;57598;50.888;4.746;2023-04-08T11:15:51;17.40;99.90
21570;DHT22;57598;50.888;4.746;2023-04-08T11:18:20;17.30;99.90
21570;DHT22;57598;50.888;4.746;2023-04-08T11:20:49;17.30;99.90
21570;DHT22;57598;50.888;4.746;2023-04-08T11:23:18;18.10;99.90
21570;DHT22;57598;50.888;4.746;2023-04-08T11:25:46;18.50;99.90
21570;DHT22;57598;50.888;4.746;2023-04-08T11:28:13;19.40;99.90
21570;DHT22;57598;50.888;4.746;2023-04-08T11:30:40;19.50;99.90
21570;DHT22;57598;50.888;4.746;2023-04-08T11:33:08;19.20;99.90
21570;DHT22;57598;50.888;4.746;2023-04-08T11:35:38;19.00;99.90
21570;DHT22;57598;50.888;4.746;2023-04-08T11:38:06;18.80;99.70
21570;DHT22;57598;50.888;4.746;2023-04-08T11:40:38;17.80;99.90
21570;DHT22;57598;50.888;4.746;2023-04-08T11:43:08;17.50;99.90
21570;DHT22;57598;50.888;4.746;2023-04-08T11:45:37;17.40;99.90
21570;DHT22;57598;50.888;4.746;2023-04-08T11:48:08;17.10;99.90
21570;DHT22;57598;50.888;4.746;2023-04-08T11:50:36;16.90;99.90
21570;DHT22;57598;50.888;4.746;2023-04-08T11:53:03;17.10;99.90
21570;DHT22;57598;50.888;4.746;2023-04-08T11:55:31;17.00;99.90
21570;DHT22;57598;50.888;4.746;2023-04-08T11:58:03;17.00;99.90
21570;DHT22;57598;50.888;4.746;2023-04-08T12:00:32;17.00;99.90
21570;DHT22;57598;50.888;4.746;2023-04-08T12:02:59;16.60;99.90
21570;DHT22;57598;50.888;4.746;2023-04-08T12:05:26;16.00;99.90
21570;DHT22;57598;50.888;4.746;2023-04-08T12:07:53;16.40;99.90
21570;DHT22;57598;50.888;4.746;2023-04-08T12:10:20;16.70;99.90
21570;DHT22;57598;50.888;4.746;2023-04-08T12:12:50;16.70;99.90
21570;DHT22;57598;50.888;4.746;2023-04-08T12:15:18;17.00;99.90
21570;DHT22;57598;50.888;4.746;2023-04-08T12:17:45;17.10;99.90
21570;DHT22;57598;50.888;4.746;2023-04-08T12:20:13;17.20;99.90
21570;DHT22;57598;50.888;4.746;2023-04-08T12:22:42;17.30;99.90
21570;DHT22;57598;50.888;4.746;2023-04-08T12:25:10;17.20;99.90
21570;DHT22;57598;50.888;4.746;2023-04-08T12:27:36;17.20;99.90
21570;DHT22;57598;50.888;4.746;2023-04-08T12:30:04;17.40;99.90
21570;DHT22;57598;50.888;4.746;2023-04-08T12:32:33;17.50;99.90
21570;DHT22;57598;50.888;4.746;2023-04-08T12:35:00;17.60;99.90
21570;DHT22;57598;50.888;4.746;2023-04-08T12:37:27;17.80;99.90
21570;DHT22;57598;50.888;4.746;2023-04-08T12:39:54;18.10;99.90
21570;DHT22;57598;50.888;4.746;2023-04-08T12:42:21;18.50;99.90
21570;DHT22;57598;50.888;4.746;2023-04-08T12:44:48;18.80;99.90
21570;DHT22;57598;50.888;4.746;2023-04-08T12:47:15;19.20;98.70
21570;DHT22;57598;50.888;4.746;2023-04-08T12:49:43;20.20;98.00
21570;DHT22;57598;50.888;4.746;2023-04-08T12:52:10;20.80;96.50
21570;DHT22;57598;50.888;4.746;2023-04-08T12:54:38;21.00;94.90
21570;DHT22;57598;50.888;4.746;2023-04-08T12:57:05;21.70;93.60
21570;DHT22;57598;50.888;4.746;2023-04-08T12:59:32;21.80;92.30
21570;DHT22;57598;50.888;4.746;2023-04-08T13:01:59;22.10;89.70
21570;DHT22;57598;50.888;4.746;2023-04-08T13:04:26;22.30;85.80
21570;DHT22;57598;50.888;4.746;2023-04-08T13:06:54;21.30;86.40
21570;DHT22;57598;50.888;4.746;2023-04-08T13:09:22;20.90;87.00
21570;DHT22;57598;50.888;4.746;2023-04-08T13:11:49;20.50;90.60
21570;DHT22;57598;50.888;4.746;2023-04-08T13:14:16;19.90;91.80
21570;DHT22;57598;50.888;4.746;2023-04-08T13:16:43;19.30;92.40
21570;DHT22;57598;50.888;4.746;2023-04-08T13:19:10;18.90;93.30
21570;DHT22;57598;50.888;4.746;2023-04-08T13:21:38;18.90;93.10
21570;DHT22;57598;50.888;4.746;2023-04-08T13:24:06;18.80;93.60
21570;DHT22;57598;50.888;4.746;2023-04-08T13:26:33;18.90;93.20
21570;DHT22;57598;50.888;4.746;2023-04-08T13:29:00;18.80;93.10
21570;DHT22;57598;50.888;4.746;2023-04-08T13:31:27;18.60;93.20
21570;DHT22;57598;50.888;4.746;2023-04-08T13:33:54;18.50;93.60
21570;DHT22;57598;50.888;4.746;2023-04-08T13:36:21;18.30;93.60
21570;DHT22;57598;50.888;4.746;2023-04-08T13:38:48;18.90;93.00
21570;DHT22;57598;50.888;4.746;2023-04-08T13:41:16;19.70;91.00
21570;DHT22;57598;50.888;4.746;2023-04-08T13:43:43;20.40;89.70
21570;DHT22;57598;50.888;4.746;2023-04-08T13:46:10;20.90;86.50
21570;DHT22;57598;50.888;4.746;2023-04-08T13:48:37;20.90;85.90
21570;DHT22;57598;50.888;4.746;2023-04-08T13:51:04;21.00;85.30
21570;DHT22;57598;50.888;4.746;2023-04-08T13:53:31;21.40;83.80
21570;DHT22;57598;50.888;4.746;2023-04-08T13:55:58;21.60;84.00
21570;DHT22;57598;50.888;4.746;2023-04-08T13:58:27;21.90;83.30
21570;DHT22;57598;50.888;4.746;2023-04-08T14:00:54;22.30;81.80
21570;DHT22;57598;50.888;4.746;2023-04-08T14:03:21;22.40;81.50
21570;DHT22;57598;50.888;4.746;2023-04-08T14:05:48;21.50;79.80
21570;DHT22;57598;50.888;4.746;2023-04-08T14:08:15;20.90;82.40
21570;DHT22;57598;50.888;4.746;2023-04-08T14:10:44;20.10;81.00
21570;DHT22;57598;50.888;4.746;2023-04-08T14:13:11;19.60;83.50
21570;DHT22;57598;50.888;4.746;2023-04-08T14:15:39;19.00;84.70
21570;DHT22;57598;50.888;4.746;2023-04-08T14:18:06;18.60;84.30
21570;DHT22;57598;50.888;4.746;2023-04-08T14:20:33;18.50;84.80
21570;DHT22;57598;50.888;4.746;2023-04-08T14:23:01;18.70;85.80
21570;DHT22;57598;50.888;4.746;2023-04-08T14:25:28;19.10;84.40
21570;DHT22;57598;50.888;4.746;2023-04-08T14:27:55;20.00;82.70
21570;DHT22;57598;50.888;4.746;2023-04-08T14:30:23;20.60;83.10
21570;DHT22;57598;50.888;4.746;2023-04-08T14:32:51;20.90;78.70
21570;DHT22;57598;50.888;4.746;2023-04-08T14:35:18;21.00;80.70
21570;DHT22;57598;50.888;4.746;2023-04-08T14:37:46;20.50;80.20
21570;DHT22;57598;50.888;4.746;2023-04-08T14:40:13;19.90;81.40
21570;DHT22;57598;50.888;4.746;2023-04-08T14:42:40;19.60;83.30
21570;DHT22;57598;50.888;4.746;2023-04-08T14:45:07;19.20;85.60
21570;DHT22;57598;50.888;4.746;2023-04-08T14:47:35;18.90;85.50
21570;DHT22;57598;50.888;4.746;2023-04-08T14:50:04;19.00;86.70
21570;DHT22;57598;50.888;4.746;2023-04-08T14:52:31;19.60;82.60
21570;DHT22;57598;50.888;4.746;2023-04-08T14:54:58;19.80;79.90
21570;DHT22;57598;50.888;4.746;2023-04-08T14:57:25;20.10;80.00
21570;DHT22;57598;50.888;4.746;2023-04-08T14:59:52;20.40;78.20
21570;DHT22;57598;50.888;4.746;2023-04-08T15:02:19;20.40;79.40
21570;DHT22;57598;50.888;4.746;2023-04-08T15:04:46;20.50;78.90
21570;DHT22;57598;50.888;4.746;2023-04-08T15:07:15;20.80;76.70
21570;DHT22;57598;50.888;4.746;2023-04-08T15:09:42;20.70;74.20
21570;DHT22;57598;50.888;4.746;2023-04-08T15:12:09;20.60;74.80
21570;DHT22;57598;50.888;4.746;2023-04-08T15:14:39;20.00;76.80
21570;DHT22;57598;50.888;4.746;2023-04-08T15:17:06;19.30;79.50
21570;DHT22;57598;50.888;4.746;2023-04-08T15:19:34;19.10;78.70
21570;DHT22;57598;50.888;4.746;2023-04-08T15:22:01;18.70;81.40
21570;DHT22;57598;50.888;4.746;2023-04-08T15:24:30;18.60;82.60
21570;DHT22;57598;50.888;4.746;2023-04-08T15:26:57;18.40;79.60
21570;DHT22;57598;50.888;4.746;2023-04-08T15:29:24;18.50;79.50
21570;DHT22;57598;50.888;4.746;2023-04-08T15:31:51;18.40;81.40
21570;DHT22;57598;50.888;4.746;2023-04-08T15:34:18;18.30;82.10
21570;DHT22;57598;50.888;4.746;2023-04-08T15:36:45;18.30;81.80
21570;DHT22;57598;50.888;4.746;2023-04-08T15:39:12;18.40;81.20
21570;DHT22;57598;50.888;4.746;2023-04-08T15:41:41;18.40;81.10
21570;DHT22;57598;50.888;4.746;2023-04-08T15:44:07;18.30;80.20